sensor_id;sensor_type;location;lat;lon;timestamp;pressure;altitude;pressure_sealevel;temperature;humidity
17383;BME280;8809;51.892;8.384;2023-07-31T00:01:00;100039.47;;;16.26;100.00
17383;BME280;8809;51.892;8.384;2023-07-31T00:03:27;100016.63;;;16.25;100.00
17383;BME280;8809;51.892;8.384;2023-07-31T00:05:55;100020.16;;;16.24;100.00
17383;BME280;8809;51.892;8.384;2023-07-31T00:08:24;100023.66;;;16.23;100.00
17383;BME280;8809;51.892;8.384;2023-07-31T00:10:52;100014.91;;;16.27;100.00
17383;BME280;8809;51.892;8.384;2023-07-31T00:13:19;100014.00;;;16.25;100.00
17383;BME280;8809;51.892;8.384;2023-07-31T00:15:47;100011.38;;;16.23;100.00
17383;BME280;8809;51.892;8.384;2023-07-31T00:18:15;100014.88;;;16.21;100.00
17383;BME280;8809;51.892;8.384;2023-07-31T00:20:43;100008.69;;;16.17;100.00
17383;BME280;8809;51.892;8.384;2023-07-31T00:23:13;100013.09;;;16.20;100.00
17383;BME280;8809;51.892;8.384;2023-07-31T00:25:40;100003.47;;;16.22;100.00
17383;BME280;8809;51.892;8.384;2023-07-31T00:28:07;100013.13;;;16.23;100.00
17383;BME280;8809;51.892;8.384;2023-07-31T00:30:34;100003.47;;;16.22;100.00
17383;BME280;8809;51.892;8.384;2023-07-31T00:33:01;100014.00;;;16.22;100.00
17383;BME280;8809;51.892;8.384;2023-07-31T00:35:30;100009.59;;;16.21;100.00
17383;BME280;8809;51.892;8.384;2023-07-31T00:37:58;100010.50;;;16.23;100.00
17383;BME280;8809;51.892;8.384;2023-07-31T00:40:26;100015.75;;;16.23;100.00
17383;BME280;8809;51.892;8.384;2023-07-31T00:42:53;100006.09;;;16.22;100.00
17383;BME280;8809;51.892;8.384;2023-07-31T00:45:21;100006.97;;;16.21;100.00
17383;BME280;8809;51.892;8.384;2023-07-31T00:47:52;100003.44;;;16.19;100.00
17383;BME280;8809;51.892;8.384;2023-07-31T00:50:20;100003.41;;;16.17;100.00
17383;BME280;8809;51.892;8.384;2023-07-31T00:52:50;99999.00;;;16.16;100.00
17383;BME280;8809;51.892;8.384;2023-07-31T00:55:18;100013.91;;;16.16;100.00
17383;BME280;8809;51.892;8.384;2023-07-31T00:57:45;99999.94;;;16.20;100.00
17383;BME280;8809;51.892;8.384;2023-07-31T01:00:12;100015.69;;;16.14;100.00
17383;BME280;8809;51.892;8.384;2023-07-31T01:02:39;100007.75;;;16.11;100.00
17383;BME280;8809;51.892;8.384;2023-07-31T01:05:07;100018.22;;;16.05;100.00
17383;BME280;8809;51.892;8.384;2023-07-31T01:07:40;100007.56;;;15.95;100.00
17383;BME280;8809;51.892;8.384;2023-07-31T01:10:16;100011.06;;;15.91;100.00
17383;BME280;8809;51.892;8.384;2023-07-31T01:12:45;100013.59;;;15.82;100.00
17383;BME280;8809;51.892;8.384;2023-07-31T01:15:14;100010.91;;;15.79;100.00
17383;BME280;8809;51.892;8.384;2023-07-31T01:17:43;100007.41;;;15.76;100.00
17383;BME280;8809;51.892;8.384;2023-07-31T01:20:12;100006.50;;;15.75;100.00
17383;BME280;8809;51.892;8.384;2023-07-31T01:22:54;100009.09;;;15.72;100.00
17383;BME280;8809;51.892;8.384;2023-07-31T01:25:46;100003.78;;;15.66;100.00
17383;BME280;8809;51.892;8.384;2023-07-31T01:28:20;99997.59;;;15.63;100.00
17383;BME280;8809;51.892;8.384;2023-07-31T01:30:48;100000.16;;;15.58;100.00
17383;BME280;8809;51.892;8.384;2023-07-31T01:33:16;100004.53;;;15.57;100.00
17383;BME280;8809;51.892;8.384;2023-07-31T01:35:45;99994.88;;;15.55;100.00
17383;BME280;8809;51.892;8.384;2023-07-31T01:38:13;99993.09;;;15.54;100.00
17383;BME280;8809;51.892;8.384;2023-07-31T01:40:41;99988.69;;;15.53;100.00
17383;BME280;8809;51.892;8.384;2023-07-31T01:43:10;99991.28;;;15.51;100.00
17383;BME280;8809;51.892;8.384;2023-07-31T01:45:38;99985.06;;;15.43;100.00
17383;BME280;8809;51.892;8.384;2023-07-31T01:48:05;99980.63;;;15.39;100.00
17383;BME280;8809;51.892;8.384;2023-07-31T01:50:32;99981.47;;;15.37;100.00
17383;BME280;8809;51.892;8.384;2023-07-31T01:52:59;99976.25;;;15.40;100.00
17383;BME280;8809;51.892;8.384;2023-07-31T01:55:26;99970.97;;;15.37;100.00
17383;BME280;8809;51.892;8.384;2023-07-31T01:57:53;99959.53;;;15.35;100.00
17383;BME280;8809;51.892;8.384;2023-07-31T02:00:21;99968.25;;;15.31;100.00
17383;BME280;8809;51.892;8.384;2023-07-31T02:02:49;99963.84;;;15.28;100.00
17383;BME280;8809;51.892;8.384;2023-07-31T02:05:16;99955.94;;;15.25;100.00
17383;BME280;8809;51.892;8.384;2023-07-31T02:07:43;99953.28;;;15.23;100.00
17383;BME280;8809;51.892;8.384;2023-07-31T02:10:10;99949.75;;;15.23;100.00
17383;BME280;8809;51.892;8.384;2023-07-31T02:12:37;99948.00;;;15.22;100.00
17383;BME280;8809;51.892;8.384;2023-07-31T02:15:07;99947.09;;;15.21;100.00
17383;BME280;8809;51.892;8.384;2023-07-31T02:17:36;99941.88;;;15.23;100.00
17383;BME280;8809;51.892;8.384;2023-07-31T02:20:04;99948.94;;;15.27;100.00
17383;BME280;8809;51.892;8.384;2023-07-31T02:22:32;99934.06;;;15.31;100.00
17383;BME280;8809;51.892;8.384;2023-07-31T02:24:59;99938.53;;;15.35;100.00
17383;BME280;8809;51.892;8.384;2023-07-31T02:27:26;99939.38;;;15.34;100.00
17383;BME280;8809;51.892;8.384;2023-07-31T02:29:53;99944.66;;;15.35;100.00
17383;BME280;8809;51.892;8.384;2023-07-31T02:32:25;99934.16;;;15.35;100.00
17383;BME280;8809;51.892;8.384;2023-07-31T02:34:53;99930.63;;;15.33;100.00
17383;BME280;8809;51.892;8.384;2023-07-31T02:37:20;99929.78;;;15.39;100.00
17383;BME280;8809;51.892;8.384;2023-07-31T02:39:47;99922.81;;;15.41;100.00
17383;BME280;8809;51.892;8.384;2023-07-31T02:42:14;99928.09;;;15.44;100.00
17383;BME280;8809;51.892;8.384;2023-07-31T02:44:42;99923.69;;;15.41;100.00
17383;BME280;8809;51.892;8.384;2023-07-31T02:47:09;99921.03;;;15.40;100.00
17383;BME280;8809;51.892;8.384;2023-07-31T02:49:36;99923.66;;;15.40;100.00
17383;BME280;8809;51.892;8.384;2023-07-31T02:52:06;99912.28;;;15.41;100.00
17383;BME280;8809;51.892;8.384;2023-07-31T02:54:33;99913.19;;;15.41;100.00
17383;BME280;8809;51.892;8.384;2023-07-31T02:57:00;99917.59;;;15.44;100.00
17383;BME280;8809;51.892;8.384;2023-07-31T02:59:28;99918.47;;;15.44;100.00
17383;BME280;8809;51.892;8.384;2023-07-31T03:01:55;99909.75;;;15.48;100.00
17383;BME280;8809;51.892;8.384;2023-07-31T03:04:23;99916.78;;;15.51;100.00
17383;BME280;8809;51.892;8.384;2023-07-31T03:06:50;99917.78;;;15.59;100.00
17383;BME280;8809;51.892;8.384;2023-07-31T03:09:21;99914.44;;;15.74;100.00
17383;BME280;8809;51.892;8.384;2023-07-31T03:11:48;99909.19;;;15.78;100.00
17383;BME280;8809;51.892;8.384;2023-07-31T03:14:15;99918.94;;;15.88;100.00
17383;BME280;8809;51.892;8.384;2023-07-31T03:16:45;99919.88;;;15.96;100.00
17383;BME280;8809;51.892;8.384;2023-07-31T03:19:12;99929.59;;;16.01;100.00
17383;BME280;8809;51.892;8.384;2023-07-31T03:21:40;99920.84;;;16.03;100.00
17383;BME280;8809;51.892;8.384;2023-07-31T03:24:07;99915.59;;;16.08;100.00
17383;BME280;8809;51.892;8.384;2023-07-31T03:26:37;99924.41;;;16.10;100.00
17383;BME280;8809;51.892;8.384;2023-07-31T03:29:07;99917.41;;;16.15;100.00
17383;BME280;8809;51.892;8.384;2023-07-31T03:31:34;99924.44;;;16.13;100.00
17383;BME280;8809;51.892;8.384;2023-07-31T03:34:01;99917.44;;;16.16;100.00
17383;BME280;8809;51.892;8.384;2023-07-31T03:36:28;99915.69;;;16.17;100.00
17383;BME280;8809;51.892;8.384;2023-07-31T03:38:55;99910.44;;;16.18;100.00
17383;BME280;8809;51.892;8.384;2023-07-31T03:41:22;99924.47;;;16.17;100.00
17383;BME280;8809;51.892;8.384;2023-07-31T03:43:51;99917.53;;;16.24;100.00
17383;BME280;8809;51.892;8.384;2023-07-31T03:46:18;99918.38;;;16.21;100.00
17383;BME280;8809;51.892;8.384;2023-07-31T03:48:46;99911.34;;;16.22;100.00
17383;BME280;8809;51.892;8.384;2023-07-31T03:51:15;99914.88;;;16.22;100.00
17383;BME280;8809;51.892;8.384;2023-07-31T03:53:43;99914.88;;;16.25;100.00
17383;BME280;8809;51.892;8.384;2023-07-31T03:56:10;99911.34;;;16.22;100.00
17383;BME280;8809;51.892;8.384;2023-07-31T03:58:40;99910.50;;;16.23;100.00
17383;BME280;8809;51.892;8.384;2023-07-31T04:01:08;99903.47;;;16.22;100.00
17383;BME280;8809;51.892;8.384;2023-07-31T04:03:36;99909.56;;;16.18;100.00
17383;BME280;8809;51.892;8.384;2023-07-31T04:06:03;99918.34;;;16.20;100.00
17383;BME280;8809;51.892;8.384;2023-07-31T04:08:32;99917.47;;;16.21;100.00
17383;BME280;8809;51.892;8.384;2023-07-31T04:11:00;99918.34;;;16.20;100.00
17383;BME280;8809;51.892;8.384;2023-07-31T04:13:29;99916.59;;;16.20;100.00
17383;BME280;8809;51.892;8.384;2023-07-31T04:15:56;99914.84;;;16.19;100.00
17383;BME280;8809;51.892;8.384;2023-07-31T04:18:26;99921.84;;;16.19;100.00
17383;BME280;8809;51.892;8.384;2023-07-31T04:20:53;99918.38;;;16.21;100.00
17383;BME280;8809;51.892;8.384;2023-07-31T04:23:26;99922.72;;;16.19;100.00
17383;BME280;8809;51.892;8.384;2023-07-31T04:25:56;99922.72;;;16.19;100.00
17383;BME280;8809;51.892;8.384;2023-07-31T04:28:23;99932.38;;;16.19;100.00
17383;BME280;8809;51.892;8.384;2023-07-31T04:30:51;99927.09;;;16.19;100.00
17383;BME280;8809;51.892;8.384;2023-07-31T04:33:21;99929.78;;;16.22;100.00
17383;BME280;8809;51.892;8.384;2023-07-31T04:35:53;99920.97;;;16.18;100.00
17383;BME280;8809;51.892;8.384;2023-07-31T04:38:21;99921.81;;;16.17;100.00
17383;BME280;8809;51.892;8.384;2023-07-31T04:40:48;99913.94;;;16.17;100.00
17383;BME280;8809;51.892;8.384;2023-07-31T04:43:16;99913.94;;;16.17;100.00
17383;BME280;8809;51.892;8.384;2023-07-31T04:45:45;99919.19;;;16.17;100.00
17383;BME280;8809;51.892;8.384;2023-07-31T04:48:13;99912.19;;;16.18;100.00
17383;BME280;8809;51.892;8.384;2023-07-31T04:50:42;99915.69;;;16.18;100.00
17383;BME280;8809;51.892;8.384;2023-07-31T04:53:11;99913.97;;;16.20;100.00
17383;BME280;8809;51.892;8.384;2023-07-31T04:55:38;99909.56;;;16.19;100.00
17383;BME280;8809;51.892;8.384;2023-07-31T04:58:05;99914.88;;;16.22;100.00
17383;BME280;8809;51.892;8.384;2023-07-31T05:00:32;99917.50;;;16.22;100.00
17383;BME280;8809;51.892;8.384;2023-07-31T05:02:59;99911.38;;;16.23;100.00
17383;BME280;8809;51.892;8.384;2023-07-31T05:05:27;99912.28;;;16.28;100.00
17383;BME280;8809;51.892;8.384;2023-07-31T05:07:54;99912.28;;;16.28;100.00
17383;BME280;8809;51.892;8.384;2023-07-31T05:10:22;99909.63;;;16.27;100.00
17383;BME280;8809;51.892;8.384;2023-07-31T05:12:49;99907.00;;;16.27;100.00
17383;BME280;8809;51.892;8.384;2023-07-31T05:15:17;99918.41;;;16.27;100.00
17383;BME280;8809;51.892;8.384;2023-07-31T05:17:45;99919.34;;;16.32;100.00
17383;BME280;8809;51.892;8.384;2023-07-31T05:20:12;99914.06;;;16.34;100.00
17383;BME280;8809;51.892;8.384;2023-07-31T05:22:40;99914.06;;;16.36;100.00
17383;BME280;8809;51.892;8.384;2023-07-31T05:25:08;99919.34;;;16.37;100.00
17383;BME280;8809;51.892;8.384;2023-07-31T05:27:37;99918.47;;;16.37;100.00
17383;BME280;8809;51.892;8.384;2023-07-31T05:30:05;99907.94;;;16.38;100.00
17383;BME280;8809;51.892;8.384;2023-07-31T05:32:32;99913.25;;;16.41;100.00
17383;BME280;8809;51.892;8.384;2023-07-31T05:35:00;99917.66;;;16.42;100.00
17383;BME280;8809;51.892;8.384;2023-07-31T05:37:28;99919.41;;;16.42;100.00
17383;BME280;8809;51.892;8.384;2023-07-31T05:39:55;99916.78;;;16.43;100.00
17383;BME280;8809;51.892;8.384;2023-07-31T05:42:22;99923.78;;;16.44;100.00
17383;BME280;8809;51.892;8.384;2023-07-31T05:44:50;99910.63;;;16.46;100.00
17383;BME280;8809;51.892;8.384;2023-07-31T05:47:17;99919.44;;;16.48;100.00
17383;BME280;8809;51.892;8.384;2023-07-31T05:49:45;99912.41;;;16.48;100.00
17383;BME280;8809;51.892;8.384;2023-07-31T05:52:12;99919.47;;;16.55;100.00
17383;BME280;8809;51.892;8.384;2023-07-31T05:54:39;99913.31;;;16.55;100.00
17383;BME280;8809;51.892;8.384;2023-07-31T05:57:06;99910.69;;;16.55;100.00
17383;BME280;8809;51.892;8.384;2023-07-31T05:59:33;99903.69;;;16.52;100.00
17383;BME280;8809;51.892;8.384;2023-07-31T06:02:02;99908.03;;;16.50;100.00
17383;BME280;8809;51.892;8.384;2023-07-31T06:04:29;99901.91;;;16.51;100.00
17383;BME280;8809;51.892;8.384;2023-07-31T06:06:56;99899.28;;;16.53;100.00
17383;BME280;8809;51.892;8.384;2023-07-31T06:09:24;99891.41;;;16.53;100.00
17383;BME280;8809;51.892;8.384;2023-07-31T06:11:51;99903.69;;;16.57;100.00
17383;BME280;8809;51.892;8.384;2023-07-31T06:14:19;99895.81;;;16.58;100.00
17383;BME280;8809;51.892;8.384;2023-07-31T06:16:46;99896.69;;;16.59;100.00
17383;BME280;8809;51.892;8.384;2023-07-31T06:19:15;99896.66;;;16.57;100.00
17383;BME280;8809;51.892;8.384;2023-07-31T06:21:42;99897.63;;;16.62;100.00
17383;BME280;8809;51.892;8.384;2023-07-31T06:24:10;99896.75;;;16.62;100.00
17383;BME280;8809;51.892;8.384;2023-07-31T06:26:38;99904.66;;;16.66;100.00
17383;BME280;8809;51.892;8.384;2023-07-31T06:29:06;99902.03;;;16.66;100.00
17383;BME280;8809;51.892;8.384;2023-07-31T06:31:33;99895.03;;;16.68;100.00
17383;BME280;8809;51.892;8.384;2023-07-31T06:34:00;99902.06;;;16.71;100.00
17383;BME280;8809;51.892;8.384;2023-07-31T06:36:33;99887.16;;;16.72;100.00
17383;BME280;8809;51.892;8.384;2023-07-31T06:39:13;99889.78;;;16.72;100.00
17383;BME280;8809;51.892;8.384;2023-07-31T06:41:52;99891.53;;;16.74;100.00
17383;BME280;8809;51.892;8.384;2023-07-31T06:44:48;99874.84;;;16.74;100.00
17383;BME280;8809;51.892;8.384;2023-07-31T06:48:07;99865.19;;;16.76;100.00
17383;BME280;8809;51.892;8.384;2023-07-31T06:50:43;99870.50;;;16.80;100.00
17383;BME280;8809;51.892;8.384;2023-07-31T06:53:16;99870.50;;;16.80;100.00
17383;BME280;8809;51.892;8.384;2023-07-31T06:55:43;99874.88;;;16.80;100.00
17383;BME280;8809;51.892;8.384;2023-07-31T06:58:10;99877.53;;;16.80;100.00
17383;BME280;8809;51.892;8.384;2023-07-31T07:00:38;99866.13;;;16.81;100.00
17383;BME280;8809;51.892;8.384;2023-07-31T07:03:07;99871.38;;;16.79;100.00
17383;BME280;8809;51.892;8.384;2023-07-31T07:05:42;99874.88;;;16.77;100.00
17383;BME280;8809;51.892;8.384;2023-07-31T07:08:09;99862.56;;;16.76;100.00
17383;BME280;8809;51.892;8.384;2023-07-31T07:10:42;99866.94;;;16.75;100.00
17383;BME280;8809;51.892;8.384;2023-07-31T07:13:12;99864.31;;;16.74;100.00
17383;BME280;8809;51.892;8.384;2023-07-31T07:15:39;99869.56;;;16.74;100.00
17383;BME280;8809;51.892;8.384;2023-07-31T07:18:06;99871.31;;;16.73;100.00
17383;BME280;8809;51.892;8.384;2023-07-31T07:20:36;99866.94;;;16.74;100.00
17383;BME280;8809;51.892;8.384;2023-07-31T07:23:03;99881.88;;;16.70;100.00
17383;BME280;8809;51.892;8.384;2023-07-31T07:25:31;99873.06;;;16.68;100.00
17383;BME280;8809;51.892;8.384;2023-07-31T07:27:59;99876.59;;;16.68;100.00
17383;BME280;8809;51.892;8.384;2023-07-31T07:30:26;99888.84;;;16.66;100.00
17383;BME280;8809;51.892;8.384;2023-07-31T07:32:54;99894.09;;;16.63;100.00
17383;BME280;8809;51.892;8.384;2023-07-31T07:35:24;99893.22;;;16.61;100.00
17383;BME280;8809;51.892;8.384;2023-07-31T07:37:54;99887.03;;;16.59;100.00
17383;BME280;8809;51.892;8.384;2023-07-31T07:40:22;99877.34;;;16.55;100.00
17383;BME280;8809;51.892;8.384;2023-07-31T07:42:50;99873.81;;;16.55;100.00
17383;BME280;8809;51.892;8.384;2023-07-31T07:45:19;99877.34;;;16.52;100.00
17383;BME280;8809;51.892;8.384;2023-07-31T07:47:49;99878.22;;;16.51;100.00
17383;BME280;8809;51.892;8.384;2023-07-31T07:50:17;99871.19;;;16.52;100.00
17383;BME280;8809;51.892;8.384;2023-07-31T07:52:44;99872.06;;;16.51;100.00
17383;BME280;8809;51.892;8.384;2023-07-31T07:55:12;99869.44;;;16.51;100.00
17383;BME280;8809;51.892;8.384;2023-07-31T07:57:40;99866.81;;;16.52;100.00
17383;BME280;8809;51.892;8.384;2023-07-31T08:00:09;99870.31;;;16.50;100.00
17383;BME280;8809;51.892;8.384;2023-07-31T08:02:38;99860.66;;;16.50;100.00
17383;BME280;8809;51.892;8.384;2023-07-31T08:05:08;99855.38;;;16.50;100.00
17383;BME280;8809;51.892;8.384;2023-07-31T08:07:36;99857.16;;;16.51;100.00
17383;BME280;8809;51.892;8.384;2023-07-31T08:10:04;99853.66;;;16.52;100.00
17383;BME280;8809;51.892;8.384;2023-07-31T08:12:32;99843.09;;;16.55;100.00
17383;BME280;8809;51.892;8.384;2023-07-31T08:15:00;99842.25;;;16.59;100.00
17383;BME280;8809;51.892;8.384;2023-07-31T08:17:27;99830.88;;;16.63;100.00
17383;BME280;8809;51.892;8.384;2023-07-31T08:19:56;99832.69;;;16.67;100.00
17383;BME280;8809;51.892;8.384;2023-07-31T08:22:24;99830.06;;;16.74;100.00
17383;BME280;8809;51.892;8.384;2023-07-31T08:24:51;99828.34;;;16.79;100.00
17383;BME280;8809;51.892;8.384;2023-07-31T08:27:19;99829.22;;;16.78;100.00
17383;BME280;8809;51.892;8.384;2023-07-31T08:29:46;99823.94;;;16.78;100.00
17383;BME280;8809;51.892;8.384;2023-07-31T08:32:13;99817.78;;;16.77;100.00
17383;BME280;8809;51.892;8.384;2023-07-31T08:34:40;99802.88;;;16.79;100.00
17383;BME280;8809;51.892;8.384;2023-07-31T08:37:09;99816.06;;;16.81;100.00
17383;BME280;8809;51.892;8.384;2023-07-31T08:39:37;99813.41;;;16.82;100.00
17383;BME280;8809;51.892;8.384;2023-07-31T08:42:08;99807.25;;;16.83;100.00
17383;BME280;8809;51.892;8.384;2023-07-31T08:44:38;99803.75;;;16.84;100.00
17383;BME280;8809;51.892;8.384;2023-07-31T08:47:06;99804.66;;;16.88;100.00
17383;BME280;8809;51.892;8.384;2023-07-31T08:49:34;99802.94;;;16.90;100.00
17383;BME280;8809;51.892;8.384;2023-07-31T08:52:01;99797.66;;;16.90;100.00
17383;BME280;8809;51.892;8.384;2023-07-31T08:54:30;99798.53;;;16.90;100.00
17383;BME280;8809;51.892;8.384;2023-07-31T08:56:59;99799.41;;;16.91;100.00
17383;BME280;8809;51.892;8.384;2023-07-31T08:59:29;99800.31;;;16.91;100.00
17383;BME280;8809;51.892;8.384;2023-07-31T09:02:05;99803.78;;;16.93;100.00
17383;BME280;8809;51.892;8.384;2023-07-31T09:04:33;99809.94;;;16.88;100.00
17383;BME280;8809;51.892;8.384;2023-07-31T09:07:04;99809.06;;;16.89;100.00
17383;BME280;8809;51.892;8.384;2023-07-31T09:09:34;99802.94;;;16.90;100.00
17383;BME280;8809;51.892;8.384;2023-07-31T09:12:01;99795.88;;;16.92;100.00
17383;BME280;8809;51.892;8.384;2023-07-31T09:14:29;99796.75;;;16.92;100.00
17383;BME280;8809;51.892;8.384;2023-07-31T09:16:58;99797.63;;;16.93;100.00
17383;BME280;8809;51.892;8.384;2023-07-31T09:19:29;99800.28;;;16.93;100.00
17383;BME280;8809;51.892;8.384;2023-07-31T09:21:57;99788.00;;;16.96;100.00
17383;BME280;8809;51.892;8.384;2023-07-31T09:24:28;99794.16;;;17.00;100.00
17383;BME280;8809;51.892;8.384;2023-07-31T09:27:04;99797.66;;;17.02;100.00
17383;BME280;8809;51.892;8.384;2023-07-31T09:29:32;99790.66;;;17.07;100.00
17383;BME280;8809;51.892;8.384;2023-07-31T09:32:04;99783.66;;;17.09;100.00
17383;BME280;8809;51.892;8.384;2023-07-31T09:34:37;99790.66;;;17.07;100.00
17383;BME280;8809;51.892;8.384;2023-07-31T09:37:11;99788.91;;;17.15;100.00
17383;BME280;8809;51.892;8.384;2023-07-31T09:39:50;99782.78;;;17.16;100.00
17383;BME280;8809;51.892;8.384;2023-07-31T09:42:26;99778.41;;;17.18;100.00
17383;BME280;8809;51.892;8.384;2023-07-31T09:45:07;99780.13;;;17.22;100.00
17383;BME280;8809;51.892;8.384;2023-07-31T09:47:35;99780.16;;;17.24;100.00
17383;BME280;8809;51.892;8.384;2023-07-31T09:50:07;99774.91;;;17.27;100.00
17383;BME280;8809;51.892;8.384;2023-07-31T09:52:38;99771.34;;;17.23;100.00
17383;BME280;8809;51.892;8.384;2023-07-31T09:55:07;99781.03;;;17.27;100.00
17383;BME280;8809;51.892;8.384;2023-07-31T09:57:36;99772.25;;;17.31;100.00
17383;BME280;8809;51.892;8.384;2023-07-31T10:00:09;99767.88;;;17.27;100.00
17383;BME280;8809;51.892;8.384;2023-07-31T10:02:38;99767.00;;;17.36;100.00
17383;BME280;8809;51.892;8.384;2023-07-31T10:05:06;99767.88;;;17.38;100.00
17383;BME280;8809;51.892;8.384;2023-07-31T10:07:36;99772.28;;;17.39;100.00
17383;BME280;8809;51.892;8.384;2023-07-31T10:10:07;99774.91;;;17.37;100.00
17383;BME280;8809;51.892;8.384;2023-07-31T10:12:37;99771.41;;;17.38;100.00
17383;BME280;8809;51.892;8.384;2023-07-31T10:15:06;99771.41;;;17.38;100.00
17383;BME280;8809;51.892;8.384;2023-07-31T10:17:36;99754.66;;;17.41;100.00
17383;BME280;8809;51.892;8.384;2023-07-31T10:20:04;99775.78;;;17.38;100.00
17383;BME280;8809;51.892;8.384;2023-07-31T10:22:37;99766.09;;;17.35;100.00
17383;BME280;8809;51.892;8.384;2023-07-31T10:25:08;99774.91;;;17.36;100.00
17383;BME280;8809;51.892;8.384;2023-07-31T10:27:40;99766.09;;;17.32;100.00
17383;BME280;8809;51.892;8.384;2023-07-31T10:30:09;99769.63;;;17.27;100.00
17383;BME280;8809;51.892;8.384;2023-07-31T10:32:40;99765.22;;;17.27;100.00
17383;BME280;8809;51.892;8.384;2023-07-31T10:35:09;99761.69;;;17.25;100.00
17383;BME280;8809;51.892;8.384;2023-07-31T10:37:40;99764.34;;;17.28;100.00
17383;BME280;8809;51.892;8.384;2023-07-31T10:40:11;99752.91;;;17.34;100.00
17383;BME280;8809;51.892;8.384;2023-07-31T10:42:46;99752.06;;;17.39;100.00
17383;BME280;8809;51.892;8.384;2023-07-31T10:45:24;99739.75;;;17.35;100.00
17383;BME280;8809;51.892;8.384;2023-07-31T10:47:58;99752.94;;;17.35;100.00
17383;BME280;8809;51.892;8.384;2023-07-31T10:50:29;99750.28;;;17.34;100.00
17383;BME280;8809;51.892;8.384;2023-07-31T10:52:58;99747.66;;;17.34;100.00
17383;BME280;8809;51.892;8.384;2023-07-31T10:55:29;99743.25;;;17.37;100.00
17383;BME280;8809;51.892;8.384;2023-07-31T10:58:05;99741.50;;;17.36;100.00
17383;BME280;8809;51.892;8.384;2023-07-31T11:00:33;99749.44;;;17.39;100.00
17383;BME280;8809;51.892;8.384;2023-07-31T11:03:03;99741.50;;;17.42;100.00
17383;BME280;8809;51.892;8.384;2023-07-31T11:05:50;99738.88;;;17.47;100.00
17383;BME280;8809;51.892;8.384;2023-07-31T11:08:21;99739.75;;;17.48;100.00
17383;BME280;8809;51.892;8.384;2023-07-31T11:10:51;99750.28;;;17.44;100.00
17383;BME280;8809;51.892;8.384;2023-07-31T11:13:41;99743.25;;;17.43;100.00
17383;BME280;8809;51.892;8.384;2023-07-31T11:16:09;99750.28;;;17.44;100.00
17383;BME280;8809;51.892;8.384;2023-07-31T11:18:39;99757.34;;;17.38;100.00
17383;BME280;8809;51.892;8.384;2023-07-31T11:21:07;99745.00;;;17.40;100.00
17383;BME280;8809;51.892;8.384;2023-07-31T11:23:37;99741.50;;;17.42;100.00
17383;BME280;8809;51.892;8.384;2023-07-31T11:26:06;99741.50;;;17.46;100.00
17383;BME280;8809;51.892;8.384;2023-07-31T11:28:35;99745.91;;;17.47;100.00
17383;BME280;8809;51.892;8.384;2023-07-31T11:31:03;99729.19;;;17.58;100.00
17383;BME280;8809;51.892;8.384;2023-07-31T11:33:30;99733.56;;;17.61;100.00
17383;BME280;8809;51.892;8.384;2023-07-31T11:35:58;99736.25;;;17.67;100.00
17383;BME280;8809;51.892;8.384;2023-07-31T11:38:26;99734.47;;;17.69;100.00
17383;BME280;8809;51.892;8.384;2023-07-31T11:40:58;99724.81;;;17.72;100.00
17383;BME280;8809;51.892;8.384;2023-07-31T11:43:26;99728.31;;;17.73;100.00
17383;BME280;8809;51.892;8.384;2023-07-31T11:45:58;99720.38;;;17.79;100.00
17383;BME280;8809;51.892;8.384;2023-07-31T11:48:30;99717.75;;;17.82;100.00
17383;BME280;8809;51.892;8.384;2023-07-31T11:51:03;99714.25;;;17.82;100.00
17383;BME280;8809;51.892;8.384;2023-07-31T11:53:33;99719.53;;;17.85;100.00
17383;BME280;8809;51.892;8.384;2023-07-31T11:56:03;99723.00;;;17.88;100.00
17383;BME280;8809;51.892;8.384;2023-07-31T11:58:31;99713.34;;;17.89;100.00
17383;BME280;8809;51.892;8.384;2023-07-31T12:01:02;99715.13;;;17.84;100.00
17383;BME280;8809;51.892;8.384;2023-07-31T12:03:32;99708.97;;;17.88;100.00
17383;BME280;8809;51.892;8.384;2023-07-31T12:06:02;99709.81;;;17.91;100.00
17383;BME280;8809;51.892;8.384;2023-07-31T12:08:29;99708.06;;;17.96;100.00
17383;BME280;8809;51.892;8.384;2023-07-31T12:11:03;99712.47;;;17.97;100.00
17383;BME280;8809;51.892;8.384;2023-07-31T12:13:33;99710.72;;;17.96;100.00
17383;BME280;8809;51.892;8.384;2023-07-31T12:16:03;99714.22;;;17.97;100.00
17383;BME280;8809;51.892;8.384;2023-07-31T12:18:35;99716.84;;;17.98;100.00
17383;BME280;8809;51.892;8.384;2023-07-31T12:21:09;99708.91;;;18.04;100.00
17383;BME280;8809;51.892;8.384;2023-07-31T12:23:37;99701.88;;;18.00;100.00
17383;BME280;8809;51.892;8.384;2023-07-31T12:26:06;99711.56;;;18.01;100.00
17383;BME280;8809;51.892;8.384;2023-07-31T12:28:39;99711.56;;;17.98;100.00
17383;BME280;8809;51.892;8.384;2023-07-31T12:31:09;99712.44;;;18.00;100.00
17383;BME280;8809;51.892;8.384;2023-07-31T12:33:39;99712.47;;;17.93;100.00
17383;BME280;8809;51.892;8.384;2023-07-31T12:36:08;99712.47;;;17.91;100.00
17383;BME280;8809;51.892;8.384;2023-07-31T12:38:36;99711.56;;;17.89;100.00
17383;BME280;8809;51.892;8.384;2023-07-31T12:41:04;99716.88;;;17.94;100.00
17383;BME280;8809;51.892;8.384;2023-07-31T12:43:33;99713.38;;;17.84;100.00
17383;BME280;8809;51.892;8.384;2023-07-31T12:46:00;99724.78;;;17.83;100.00
17383;BME280;8809;51.892;8.384;2023-07-31T12:48:29;99723.03;;;17.80;100.00
17383;BME280;8809;51.892;8.384;2023-07-31T12:50:57;99717.78;;;17.76;100.00
17383;BME280;8809;51.892;8.384;2023-07-31T12:53:24;99710.75;;;17.75;100.00
17383;BME280;8809;51.892;8.384;2023-07-31T12:55:51;99721.28;;;17.72;100.00
17383;BME280;8809;51.892;8.384;2023-07-31T12:58:19;99713.38;;;17.75;100.00
17383;BME280;8809;51.892;8.384;2023-07-31T13:00:46;99705.47;;;17.78;100.00
17383;BME280;8809;51.892;8.384;2023-07-31T13:03:14;99698.38;;;17.94;100.00
17383;BME280;8809;51.892;8.384;2023-07-31T13:05:43;99695.72;;;18.03;100.00
17383;BME280;8809;51.892;8.384;2023-07-31T13:08:11;99694.78;;;18.17;100.00
17383;BME280;8809;51.892;8.384;2023-07-31T13:10:38;99706.22;;;18.26;100.00